Time;durP1;ratioP1;P1;durP2;ratioP2;P2;SDS_P1;SDS_P2;PMS_P1;PMS_P2;Temp;Humidity;BMP_temperature;BMP_pressure;BME280_temperature;BME280_humidity;BME280_pressure;Samples;Min_cycle;Max_cycle;Signal;HPM_P1;HPM_P2
2023/06/18 00:02:20;;;;;;;;;;;;;;;-144.99;100.00;52309.50;5074362;28;19959;-71
2023/06/18 00:04:48;;;;;;;;;;;;;;;-144.99;100.00;52276.88;5079764;28;20160;-71
2023/06/18 00:07:15;;;;;;;;;;;;;;;-144.99;100.00;52264.66;5077174;28;19949;-70
2023/06/18 00:09:41;;;;;;;;;;;;;;;-144.99;100.00;52293.19;5054975;28;20459;-70
2023/06/18 00:12:08;;;;;;;;;;;;;;;-144.99;100.00;52268.72;5052232;28;20097;-67
2023/06/18 00:14:35;;;;;;;;;;;;;;;-144.99;100.00;52278.91;5046959;28;19964;-67
2023/06/18 00:17:02;;;;;;;;;;;;;;;-144.99;100.00;52266.69;5052151;28;19946;-67
2023/06/18 00:19:28;;;;;;;;;;;;;;;-144.99;100.00;52309.50;5060065;28;19965;-68
2023/06/18 00:21:59;;;;;;;;;;;;;;;-144.99;100.00;52254.47;5049965;28;19971;-69
2023/06/18 00:24:25;;;;;;;;;;;;;;;-144.99;100.00;52262.63;5046422;28;19946;-71
2023/06/18 00:26:52;;;;;;;;;;;;;;;-144.99;100.00;52264.66;5060369;28;19942;-71
2023/06/18 00:29:18;;;;;;;;;;;;;;;-144.99;100.00;52264.66;5054737;28;19966;-71
2023/06/18 00:31:45;;;;;;;;;;;;;;;-144.99;100.00;52252.44;5055333;28;20408;-68
2023/06/18 00:34:12;;;;;;;;;;;;;;;-144.99;100.00;52276.88;5055136;28;19955;-65
2023/06/18 00:36:43;;;;;;;;;;;;;;;-144.99;100.00;52301.34;5054604;28;19942;-65
2023/06/18 00:39:11;;;;;;;;;;;;;;;-144.99;100.00;52270.78;5046657;28;19962;-66
2023/06/18 00:41:38;;;;;;;;;;;;;;;-144.99;100.00;52280.97;5065860;28;19953;-66
2023/06/18 00:44:08;;;;;;;;;;;;;;;-144.99;100.00;52283.00;5053238;28;20351;-67
2023/06/18 00:46:35;;;;;;;;;;;;;;;-144.99;100.00;52301.34;5053302;28;20020;-68
2023/06/18 00:49:02;;;;;;;;;;;;;;;-144.99;100.00;52293.19;5061459;28;20423;-66
2023/06/18 00:51:29;;;;;;;;;;;;;;;-144.99;100.00;52297.25;5056770;28;20000;-66
2023/06/18 00:53:56;;;;;;;;;;;;;;;-144.99;100.00;52325.81;5050288;28;19960;-66
2023/06/18 00:56:25;;;;;;;;;;;;;;;-144.99;100.00;52293.19;5058926;28;19946;-67
2023/06/18 00:58:51;;;;;;;;;;;;;;;-144.99;100.00;52305.41;5048519;28;19940;-66
2023/06/18 01:01:19;;;;;;;;;;;;;;;-144.99;100.00;52260.56;5047790;28;20032;-66
2023/06/18 01:03:47;;;;;;;;;;;;;;;-144.99;100.00;52309.50;5059607;28;19946;-66
2023/06/18 01:06:17;;;;;;;;;;;;;;;-144.99;100.00;52260.56;5044405;28;20233;-71
2023/06/18 01:08:48;;;;;;;;;;;;;;;-144.99;100.00;52262.63;5047744;28;20334;-69
2023/06/18 01:11:18;;;;;;;;;;;;;;;-144.99;100.00;52268.72;5054236;28;20018;-69
2023/06/18 01:13:46;;;;;;;;;;;;;;;-144.99;100.00;52256.50;5052578;28;20457;-68
2023/06/18 01:16:14;;;;;;;;;;;;;;;-144.99;100.00;52266.69;5058515;28;19950;-70
2023/06/18 01:18:46;;;;;;;;;;;;;;;-144.99;100.00;52289.13;5056748;28;19945;-70
2023/06/18 01:21:13;;;;;;;;;;;;;;;-144.99;100.00;52317.66;5060519;28;19940;-70
2023/06/18 01:23:49;;;;;;;;;;;;;;;-144.99;100.00;52285.03;5052050;28;20300;-69
2023/06/18 01:26:16;;;;;;;;;;;;;;;-144.99;100.00;52270.78;5054189;28;19978;-70
2023/06/18 01:28:43;;;;;;;;;;;;;;;-144.99;100.00;52293.19;5053549;28;19942;-69
2023/06/18 01:31:12;;;;;;;;;;;;;;;-144.99;100.00;52250.38;5053676;28;20031;-69
2023/06/18 01:33:39;;;;;;;;;;;;;;;-144.99;100.00;52321.72;5044369;28;20052;-68
2023/06/18 01:36:11;;;;;;;;;;;;;;;-144.99;100.00;52309.50;5048762;28;19947;-68
2023/06/18 01:38:41;;;;;;;;;;;;;;;-144.99;100.00;52276.88;5045399;28;20001;-68
2023/06/18 01:41:12;;;;;;;;;;;;;;;-144.99;100.00;52301.34;5045785;28;19944;-68
2023/06/18 01:43:43;;;;;;;;;;;;;;;-144.99;100.00;52321.72;5058557;28;19948;-70
2023/06/18 01:46:10;;;;;;;;;;;;;;;-144.99;100.00;52289.13;4699072;28;10000459;-67
2023/06/18 01:48:40;;;;;;;;;;;;;;;-144.99;100.00;52301.34;5060096;28;19949;-70
2023/06/18 01:51:07;;;;;;;;;;;;;;;-144.99;100.00;52280.97;5054052;28;19959;-71
2023/06/18 01:53:34;;;;;;;;;;;;;;;-144.99;100.00;52293.19;5054285;28;20447;-70
2023/06/18 01:56:01;;;;;;;;;;;;;;;-144.99;100.00;52285.03;5053616;28;19955;-69
2023/06/18 01:58:31;;;;;;;;;;;;;;;-144.99;100.00;52329.88;5055475;28;20336;-69
2023/06/18 02:00:58;;;;;;;;;;;;;;;-144.99;100.00;52289.13;5048082;28;20092;-71
2023/06/18 02:03:25;;;;;;;;;;;;;;;-144.99;100.00;52342.09;5046547;28;20410;-71
2023/06/18 02:05:53;;;;;;;;;;;;;;;-144.99;100.00;52264.66;5047895;28;20268;-71
2023/06/18 02:08:19;;;;;;;;;;;;;;;-144.99;100.00;52309.50;5047265;28;20178;-72
2023/06/18 02:10:46;;;;;;;;;;;;;;;-144.99;100.00;52309.50;5046627;28;19958;-71
2023/06/18 02:13:13;;;;;;;;;;;;;;;-144.99;100.00;52338.03;5044350;28;19960;-71
2023/06/18 02:15:40;;;;;;;;;;;;;;;-144.99;100.00;52305.41;5050180;28;19942;-71
2023/06/18 02:18:07;;;;;;;;;;;;;;;-144.99;100.00;52321.72;5049692;28;19947;-71
2023/06/18 02:20:34;;;;;;;;;;;;;;;-144.99;100.00;52313.56;5066117;28;19981;-70
2023/06/18 02:23:03;;;;;;;;;;;;;;;-144.99;100.00;52356.38;5066452;28;19949;-70
2023/06/18 02:25:29;;;;;;;;;;;;;;;-144.99;100.00;52327.84;5058007;28;19942;-70
2023/06/18 02:27:56;;;;;;;;;;;;;;;-144.99;100.00;52285.03;5056330;28;19985;-71
2023/06/18 02:30:23;;;;;;;;;;;;;;;-144.99;100.00;52333.94;5048933;28;20020;-70
2023/06/18 02:32:50;;;;;;;;;;;;;;;-144.99;100.00;52317.66;5047057;28;19943;-72
2023/06/18 02:35:17;;;;;;;;;;;;;;;-144.99;100.00;52319.69;5046249;28;19962;-73
2023/06/18 02:37:43;;;;;;;;;;;;;;;-144.99;100.00;52295.22;5044568;28;19956;-70
2023/06/18 02:40:13;;;;;;;;;;;;;;;-144.99;100.00;52289.13;5045012;28;19977;-70
2023/06/18 02:42:46;;;;;;;;;;;;;;;-144.99;100.00;52315.59;5061285;28;19945;-70
2023/06/18 02:45:14;;;;;;;;;;;;;;;-144.99;100.00;52297.25;5057605;28;20092;-70
2023/06/18 02:47:40;;;;;;;;;;;;;;;-144.99;100.00;52305.41;5055716;28;19962;-67
2023/06/18 02:50:08;;;;;;;;;;;;;;;-144.99;100.00;52285.03;5059939;28;20396;-67
2023/06/18 02:52:35;;;;;;;;;;;;;;;-144.99;100.00;52305.41;5050944;28;20326;-70
2023/06/18 02:55:01;;;;;;;;;;;;;;;-144.99;100.00;52301.34;5063958;28;19953;-69
2023/06/18 02:57:29;;;;;;;;;;;;;;;-144.99;100.00;52305.41;5070309;28;19948;-70
2023/06/18 02:59:56;;;;;;;;;;;;;;;-144.99;100.00;52301.34;5057752;28;19975;-67
2023/06/18 03:02:23;;;;;;;;;;;;;;;-144.99;100.00;52323.75;5050221;28;20191;-67
2023/06/18 03:04:50;;;;;;;;;;;;;;;-144.99;100.00;52280.97;5065342;28;19997;-68
2023/06/18 03:07:17;;;;;;;;;;;;;;;-144.99;100.00;52301.34;5061661;28;20028;-68
2023/06/18 03:09:44;;;;;;;;;;;;;;;-144.99;100.00;52317.66;5061091;28;19956;-68
2023/06/18 03:12:11;;;;;;;;;;;;;;;-144.99;100.00;52285.03;5061150;28;20032;-68
2023/06/18 03:14:39;;;;;;;;;;;;;;;-144.99;100.00;52317.66;5055311;28;20081;-69
2023/06/18 03:17:05;;;;;;;;;;;;;;;-144.99;100.00;52285.03;5069331;28;19960;-66
2023/06/18 03:19:32;;;;;;;;;;;;;;;-144.99;100.00;52325.81;5069645;28;19962;-65
2023/06/18 03:21:58;;;;;;;;;;;;;;;-144.99;100.00;52350.25;5066954;28;19938;-65
2023/06/18 03:24:26;;;;;;;;;;;;;;;-144.99;100.00;52346.19;5057597;28;19947;-67
2023/06/18 03:26:53;;;;;;;;;;;;;;;-144.99;100.00;52313.56;5048515;28;20409;-67
2023/06/18 03:29:20;;;;;;;;;;;;;;;-144.99;100.00;52329.88;5045148;28;19966;-66
2023/06/18 03:31:48;;;;;;;;;;;;;;;-144.99;100.00;52329.88;5054920;28;20012;-66
2023/06/18 03:34:14;;;;;;;;;;;;;;;-144.99;100.00;52333.94;5047696;28;20070;-66
2023/06/18 03:36:41;;;;;;;;;;;;;;;-144.99;100.00;52301.34;5046869;28;20582;-67
2023/06/18 03:39:08;;;;;;;;;;;;;;;-144.99;100.00;52307.47;5049160;28;19966;-70
2023/06/18 03:41:35;;;;;;;;;;;;;;;-144.99;100.00;52333.94;5050823;28;19951;-79
2023/06/18 03:44:03;;;;;;;;;;;;;;;-144.99;100.00;52321.72;5049599;28;19944;-78
2023/06/18 03:46:30;;;;;;;;;;;;;;;-144.99;100.00;52313.56;5060213;28;20564;-78
2023/06/18 03:48:58;;;;;;;;;;;;;;;-144.99;100.00;52285.03;5050184;28;20261;-75
2023/06/18 03:51:25;;;;;;;;;;;;;;;-144.99;100.00;52303.38;5049567;28;20044;-75
2023/06/18 03:53:51;;;;;;;;;;;;;;;-144.99;100.00;52309.50;5050138;28;19961;-76
2023/06/18 03:56:18;;;;;;;;;;;;;;;-144.99;100.00;52317.66;5053447;28;19948;-74
2023/06/18 03:58:46;;;;;;;;;;;;;;;-144.99;100.00;52321.72;5054860;28;20030;-84
2023/06/18 04:01:13;;;;;;;;;;;;;;;-144.99;100.00;52313.56;5070098;28;19941;-83
2023/06/18 04:03:39;;;;;;;;;;;;;;;-144.99;100.00;52309.50;5081329;28;20047;-83
2023/06/18 04:06:08;;;;;;;;;;;;;;;-144.99;100.00;52291.16;5066890;28;20445;-82
2023/06/18 04:08:35;;;;;;;;;;;;;;;-144.99;100.00;52309.50;5061322;28;19966;-79
2023/06/18 04:11:02;;;;;;;;;;;;;;;-144.99;100.00;52336.00;5056228;28;20001;-79
2023/06/18 04:13:29;;;;;;;;;;;;;;;-144.99;100.00;52342.09;5059660;28;19950;-78
2023/06/18 04:15:56;;;;;;;;;;;;;;;-144.99;100.00;52309.50;5063365;28;20157;-78
2023/06/18 04:18:24;;;;;;;;;;;;;;;-144.99;100.00;52305.41;5056714;28;19954;-77
2023/06/18 04:20:51;;;;;;;;;;;;;;;-144.99;100.00;52297.25;5069862;28;19976;-81
2023/06/18 04:23:19;;;;;;;;;;;;;;;-144.99;100.00;52319.69;5068896;28;19941;-69
2023/06/18 04:25:46;;;;;;;;;;;;;;;-144.99;100.00;52285.03;5052247;28;19937;-69
2023/06/18 04:28:12;;;;;;;;;;;;;;;-144.99;100.00;52307.47;5050178;28;19950;-70
2023/06/18 04:30:39;;;;;;;;;;;;;;;-144.99;100.00;52289.13;5050629;28;19954;-69
2023/06/18 04:33:05;;;;;;;;;;;;;;;-144.99;100.00;52301.34;5053927;28;19944;-69
2023/06/18 04:35:32;;;;;;;;;;;;;;;-144.99;100.00;52317.66;5050778;28;19958;-70
2023/06/18 04:37:59;;;;;;;;;;;;;;;-144.99;100.00;52268.72;5053027;28;21367;-69
2023/06/18 04:40:27;;;;;;;;;;;;;;;-144.99;100.00;52276.88;5052456;28;19958;-70
2023/06/18 04:42:53;;;;;;;;;;;;;;;-144.99;100.00;52276.88;5053091;28;19939;-70
2023/06/18 04:45:20;;;;;;;;;;;;;;;-144.99;100.00;52280.97;5061797;28;19952;-71
2023/06/18 04:47:47;;;;;;;;;;;;;;;-144.99;100.00;52329.88;5061908;28;19970;-74
2023/06/18 04:50:14;;;;;;;;;;;;;;;-144.99;100.00;52313.56;5072774;28;19962;-71
2023/06/18 04:52:41;;;;;;;;;;;;;;;-144.99;100.00;52297.25;5057709;28;19947;-71
2023/06/18 04:55:08;;;;;;;;;;;;;;;-144.99;100.00;52264.66;5048070;28;19969;-71
2023/06/18 04:57:36;;;;;;;;;;;;;;;-144.99;100.00;52283.00;5049822;28;19942;-71
2023/06/18 05:00:04;;;;;;;;;;;;;;;-144.99;100.00;52264.66;5060737;28;19956;-70
2023/06/18 05:02:30;;;;;;;;;;;;;;;-144.99;100.00;52242.22;5054515;28;20380;-67
2023/06/18 05:04:57;;;;;;;;;;;;;;;-144.99;100.00;52248.34;5055711;28;20020;-66
2023/06/18 05:07:24;;;;;;;;;;;;;;;-144.99;100.00;52297.25;5056997;28;19945;-68
2023/06/18 05:09:51;;;;;;;;;;;;;;;-144.99;100.00;52276.88;5045872;28;19966;-67
2023/06/18 05:12:18;;;;;;;;;;;;;;;-144.99;100.00;52248.34;5048332;28;19935;-64
2023/06/18 05:14:46;;;;;;;;;;;;;;;-144.99;100.00;52264.66;5043996;28;19957;-64
2023/06/18 05:17:12;;;;;;;;;;;;;;;-144.99;100.00;52248.34;5047936;28;20436;-65
2023/06/18 05:19:39;;;;;;;;;;;;;;;-144.99;100.00;52244.28;5053100;28;19957;-64
2023/06/18 05:22:06;;;;;;;;;;;;;;;-144.99;100.00;52232.03;5058139;28;20048;-64
2023/06/18 05:24:33;;;;;;;;;;;;;;;-144.99;100.00;52244.28;5053911;28;20001;-64
2023/06/18 05:26:59;;;;;;;;;;;;;;;-144.99;100.00;52260.56;5056988;28;20535;-64
2023/06/18 05:29:26;;;;;;;;;;;;;;;-144.99;100.00;52211.66;5053204;28;20053;-65
2023/06/18 05:31:54;;;;;;;;;;;;;;;-144.99;100.00;52256.50;5051273;28;19937;-69
2023/06/18 05:34:21;;;;;;;;;;;;;;;-144.99;100.00;52246.31;5056300;28;19958;-69
2023/06/18 05:36:47;;;;;;;;;;;;;;;-144.99;100.00;52209.63;5055643;28;20253;-69
2023/06/18 05:39:15;;;;;;;;;;;;;;;-144.99;100.00;52223.88;5056859;28;19963;-69
2023/06/18 05:41:41;;;;;;;;;;;;;;;-144.99;100.00;52260.56;5055773;28;19976;-69
2023/06/18 05:44:08;;;;;;;;;;;;;;;-144.99;99.66;52248.34;5045345;28;20148;-69
2023/06/18 05:46:34;;;;;;;;;;;;;;;-144.99;99.01;52223.88;5053168;28;20408;-70
2023/06/18 05:49:03;;;;;;;;;;;;;;;-144.99;98.84;52272.81;5046287;28;19947;-72
2023/06/18 05:51:29;;;;;;;;;;;;;;;-144.99;98.87;52207.59;5049272;28;20034;-72
2023/06/18 05:53:56;;;;;;;;;;;;;;;-144.99;98.67;52221.84;5049201;28;20507;-72
2023/06/18 05:56:23;;;;;;;;;;;;;;;-144.99;98.68;52252.44;5051787;28;20377;-73
2023/06/18 05:58:49;;;;;;;;;;;;;;;-144.99;98.49;52244.28;5051235;28;19939;-70
2023/06/18 06:01:16;;;;;;;;;;;;;;;-144.99;98.06;52187.19;5063542;28;19955;-71
2023/06/18 06:03:42;;;;;;;;;;;;;;;-144.99;97.67;52227.97;5054558;28;19955;-70
2023/06/18 06:06:10;;;;;;;;;;;;;;;-144.99;97.33;52211.66;5056792;28;20032;-71
2023/06/18 06:08:37;;;;;;;;;;;;;;;-144.99;97.10;52227.97;5056662;28;19950;-71
2023/06/18 06:11:04;;;;;;;;;;;;;;;-144.99;96.96;52227.97;5049165;28;20025;-69
2023/06/18 06:13:31;;;;;;;;;;;;;;;-144.99;94.12;52215.75;5047553;28;20027;-69
2023/06/18 06:15:57;;;;;;;;;;;;;;;-144.99;95.21;52195.34;5050211;28;19958;-74
2023/06/18 06:18:24;;;;;;;;;;;;;;;-144.99;95.43;52213.69;5047178;28;19962;-73
2023/06/18 06:20:51;;;;;;;;;;;;;;;-144.99;95.14;52203.50;5051670;28;20099;-73
2023/06/18 06:23:20;;;;;;;;;;;;;;;-144.99;95.02;52191.28;5049089;28;19935;-70
2023/06/18 06:25:46;;;;;;;;;;;;;;;-144.99;95.02;52207.59;5046851;28;20036;-71
2023/06/18 06:28:13;;;;;;;;;;;;;;;-144.99;94.36;52219.81;5050621;28;19946;-73
2023/06/18 06:30:40;;;;;;;;;;;;;;;-144.99;94.01;52185.16;5051334;28;19989;-72
2023/06/18 06:33:06;;;;;;;;;;;;;;;-144.99;93.70;52207.59;5057575;28;20006;-72
2023/06/18 06:35:33;;;;;;;;;;;;;;;-144.99;93.06;52227.97;5053639;28;20177;-72
2023/06/18 06:37:59;;;;;;;;;;;;;;;-144.99;91.89;52191.28;5052065;28;20036;-72
2023/06/18 06:40:27;;;;;;;;;;;;;;;-144.99;91.56;52209.63;5056247;28;20046;-71
2023/06/18 06:42:54;;;;;;;;;;;;;;;-144.99;91.42;52211.66;5064333;28;19986;-72
2023/06/18 06:45:21;;;;;;;;;;;;;;;-144.99;90.99;52187.19;5063784;28;20067;-72
2023/06/18 06:47:48;;;;;;;;;;;;;;;-144.99;90.32;52199.44;5053779;28;19962;-72
2023/06/18 06:50:15;;;;;;;;;;;;;;;-144.99;89.35;52146.44;5067352;28;19965;-71
2023/06/18 06:52:41;;;;;;;;;;;;;;;-144.99;88.76;52199.44;5057425;28;19943;-70
2023/06/18 06:55:08;;;;;;;;;;;;;;;-144.99;88.26;52166.81;5070570;28;19963;-69
2023/06/18 06:57:36;;;;;;;;;;;;;;;-144.99;87.62;52199.44;5068314;28;19957;-68
2023/06/18 07:00:07;;;;;;;;;;;;;;;-144.99;87.34;52174.97;5061962;28;19962;-68
2023/06/18 07:02:34;;;;;;;;;;;;;;;-144.99;86.54;52154.59;5068794;28;19942;-71
2023/06/18 07:05:01;;;;;;;;;;;;;;;-144.99;85.73;52189.25;5071150;28;19986;-71
2023/06/18 07:07:27;;;;;;;;;;;;;;;-144.99;85.17;52154.59;5059109;28;19982;-68
2023/06/18 07:09:54;;;;;;;;;;;;;;;-144.99;84.19;52179.06;5062393;28;19955;-68
2023/06/18 07:12:20;;;;;;;;;;;;;;;-144.99;83.73;52156.63;5065611;28;20035;-67
2023/06/18 07:14:48;;;;;;;;;;;;;;;-144.99;82.22;52183.13;5058786;28;19936;-67
2023/06/18 07:17:15;;;;;;;;;;;;;;;-144.99;81.20;52154.59;5072866;28;19924;-66
2023/06/18 07:19:42;;;;;;;;;;;;;;;-144.99;80.98;52166.81;5055661;28;20393;-66
2023/06/18 07:22:08;;;;;;;;;;;;;;;-144.99;80.51;52146.44;5048358;28;20044;-66
2023/06/18 07:24:35;;;;;;;;;;;;;;;-144.99;80.84;52166.81;5047288;28;19939;-67
2023/06/18 07:27:02;;;;;;;;;;;;;;;-144.99;79.33;52174.97;5050428;28;19939;-67
2023/06/18 07:29:28;;;;;;;;;;;;;;;-144.99;78.19;52126.06;5046698;28;19959;-67
2023/06/18 07:31:56;;;;;;;;;;;;;;;-144.99;77.44;52174.97;5050438;28;20398;-67
2023/06/18 07:34:23;;;;;;;;;;;;;;;-144.99;75.51;52166.81;5052713;28;19948;-67
2023/06/18 07:36:50;;;;;;;;;;;;;;;-144.99;74.91;52134.22;5052917;28;20019;-68
2023/06/18 07:39:16;;;;;;;;;;;;;;;-144.99;74.87;52154.59;5047430;28;19961;-68
2023/06/18 07:41:47;;;;;;;;;;;;;;;-144.99;74.63;52121.97;5052748;28;19966;-65
2023/06/18 07:44:13;;;;;;;;;;;;;;;-144.99;74.65;52130.13;5060676;28;19946;-75
2023/06/18 07:46:42;;;;;;;;;;;;;;;-144.99;74.62;52140.31;5053024;28;19940;-74
2023/06/18 07:49:10;;;;;;;;;;;;;;;-144.99;73.95;52170.91;5051368;28;20312;-73
2023/06/18 07:51:37;;;;;;;;;;;;;;;-144.99;73.80;52132.19;5047434;28;19941;-72
2023/06/18 07:54:04;;;;;;;;;;;;;;;-144.99;73.15;52126.06;5052398;28;19952;-68
2023/06/18 07:56:30;;;;;;;;;;;;;;;-144.99;70.39;52138.28;5053894;28;19955;-69
2023/06/18 07:58:57;;;;;;;;;;;;;;;-144.99;70.24;52138.28;5048026;28;20318;-69
2023/06/18 08:01:23;;;;;;;;;;;;;;;-144.99;71.53;52162.75;5062010;28;19960;-69
2023/06/18 08:03:50;;;;;;;;;;;;;;;-144.99;71.35;52166.81;5052961;28;19952;-69
2023/06/18 08:06:18;;;;;;;;;;;;;;;-144.99;70.64;52174.97;5073927;28;19956;-69
2023/06/18 08:08:48;;;;;;;;;;;;;;;-144.99;70.97;52121.97;5048737;28;19944;-66
2023/06/18 08:11:14;;;;;;;;;;;;;;;-144.99;71.07;52158.66;5050391;28;19978;-71
2023/06/18 08:13:41;;;;;;;;;;;;;;;-144.99;71.99;52162.75;5050805;28;19953;-72
2023/06/18 08:16:07;;;;;;;;;;;;;;;-144.99;70.96;52134.22;5056228;28;19952;-72
2023/06/18 08:18:35;;;;;;;;;;;;;;;-144.99;69.32;52154.59;5058615;28;19943;-72
2023/06/18 08:21:02;;;;;;;;;;;;;;;-144.99;70.18;52187.19;5059866;28;19960;-72
2023/06/18 08:23:30;;;;;;;;;;;;;;;-144.99;69.97;52146.44;5061270;28;20255;-74
2023/06/18 08:25:57;;;;;;;;;;;;;;;-144.99;70.77;52187.19;5063486;28;19941;-73
2023/06/18 08:28:24;;;;;;;;;;;;;;;-144.99;70.75;52183.13;5062438;28;19960;-73
2023/06/18 08:30:51;;;;;;;;;;;;;;;-144.99;70.35;52177.00;5067780;28;19951;-72
2023/06/18 08:33:17;;;;;;;;;;;;;;;-144.99;70.59;52162.75;5064492;28;20043;-73
2023/06/18 08:35:44;;;;;;;;;;;;;;;-144.99;70.92;52166.81;5062073;28;20501;-71
2023/06/18 08:38:10;;;;;;;;;;;;;;;-144.99;70.75;52134.22;5084660;28;19924;-71
2023/06/18 08:40:46;;;;;;;;;;;;;;;-144.99;70.18;52138.28;5069073;28;20349;-71
2023/06/18 08:43:14;;;;;;;;;;;;;;;-144.99;70.23;52121.97;5069597;28;19974;-71
2023/06/18 08:45:41;;;;;;;;;;;;;;;-144.99;70.17;52134.22;5074908;28;20038;-72
2023/06/18 08:48:09;;;;;;;;;;;;;;;-144.99;69.74;52105.69;5071729;28;19940;-72
2023/06/18 08:50:36;;;;;;;;;;;;;;;-144.99;69.29;52089.38;5070583;28;20050;-72
2023/06/18 08:53:06;;;;;;;;;;;;;;;-144.99;68.72;52138.28;5069830;28;19945;-72
2023/06/18 08:55:34;;;;;;;;;;;;;;;-144.99;68.87;52121.97;5080829;28;19970;-70
2023/06/18 08:58:03;;;;;;;;;;;;;;;-144.99;67.62;52130.13;5079901;28;19942;-72
2023/06/18 09:00:30;;;;;;;;;;;;;;;-144.99;67.52;52132.19;5069091;28;20061;-71
2023/06/18 09:02:57;;;;;;;;;;;;;;;-144.99;67.69;52109.75;5064374;28;19949;-73
2023/06/18 09:05:25;;;;;;;;;;;;;;;-144.99;67.26;52138.28;5067698;28;19932;-71
2023/06/18 09:07:51;;;;;;;;;;;;;;;-144.99;66.84;52105.69;5057253;28;19947;-70
2023/06/18 09:10:18;;;;;;;;;;;;;;;-144.99;65.53;52105.69;5061486;28;20204;-72
2023/06/18 09:12:44;;;;;;;;;;;;;;;-144.99;66.02;52138.28;5056412;28;20409;-72
2023/06/18 09:15:13;;;;;;;;;;;;;;;-144.99;65.61;52111.78;5056192;28;19935;-74
2023/06/18 09:17:41;;;;;;;;;;;;;;;-144.99;65.19;52085.31;5059911;28;19996;-66
2023/06/18 09:20:08;;;;;;;;;;;;;;;-144.99;65.23;52097.53;5066265;28;20054;-67
2023/06/18 09:22:44;;;;;;;;;;;;;;;-144.99;64.17;52105.69;5056998;28;20361;-67
2023/06/18 09:25:10;;;;;;;;;;;;;;;-144.99;64.69;52099.56;5056923;28;19933;-60
2023/06/18 09:27:40;;;;;;;;;;;;;;;-144.99;64.64;52083.25;5058297;28;19945;-67
2023/06/18 09:30:07;;;;;;;;;;;;;;;-144.99;65.02;52085.31;5048705;28;19957;-66
2023/06/18 09:32:45;;;;;;;;;;;;;;;-144.99;64.41;52052.69;5051050;28;20050;-66
2023/06/18 09:35:13;;;;;;;;;;;;;;;-144.99;64.54;52071.03;5064384;28;20020;-67
2023/06/18 09:37:40;;;;;;;;;;;;;;;-144.99;63.60;52101.59;5058804;28;19965;-66
2023/06/18 09:40:08;;;;;;;;;;;;;;;-144.99;64.29;52113.84;5054756;28;19958;-67
2023/06/18 09:42:35;;;;;;;;;;;;;;;-144.99;64.29;52085.31;5052754;28;19943;-67
2023/06/18 09:45:02;;;;;;;;;;;;;;;-144.99;64.67;52073.06;5045632;28;19950;-67
2023/06/18 09:47:29;;;;;;;;;;;;;;;-144.99;64.52;52085.31;4351088;28;10000763;-67
2023/06/18 09:49:57;;;;;;;;;;;;;;;-144.99;64.13;52050.66;5043328;28;20342;-66
2023/06/18 09:52:24;;;;;;;;;;;;;;;-144.99;64.37;52060.84;5042036;28;19944;-65
2023/06/18 09:54:51;;;;;;;;;;;;;;;-144.99;64.12;52003.78;5050441;28;19974;-67
2023/06/18 09:57:17;;;;;;;;;;;;;;;-144.99;63.55;52062.88;5039561;28;19960;-67
2023/06/18 09:59:44;;;;;;;;;;;;;;;-144.99;63.38;52066.97;5051383;28;19968;-66
2023/06/18 10:02:13;;;;;;;;;;;;;;;-144.99;63.13;52036.38;5044151;28;19939;-68
2023/06/18 10:04:40;;;;;;;;;;;;;;;-144.99;62.93;52060.84;4696922;28;10000558;-68
2023/06/18 10:07:15;;;;;;;;;;;;;;;-144.99;62.88;52016.00;5047864;28;19952;-67
2023/06/18 10:09:43;;;;;;;;;;;;;;;-144.99;62.01;52036.38;5045322;28;20138;-68
2023/06/18 10:12:11;;;;;;;;;;;;;;;-144.99;61.75;52075.09;5048088;28;19943;-63
2023/06/18 10:14:38;;;;;;;;;;;;;;;-144.99;61.28;52064.91;5055974;28;20020;-65
2023/06/18 10:17:08;;;;;;;;;;;;;;;-144.99;61.13;52077.16;5050015;28;19969;-67
2023/06/18 10:19:44;;;;;;;;;;;;;;;-144.99;60.55;52016.00;5049935;28;20429;-68
2023/06/18 10:22:13;;;;;;;;;;;;;;;-144.99;60.72;52036.38;5049675;28;19943;-72
2023/06/18 10:24:42;;;;;;;;;;;;;;;-144.99;61.02;52040.47;5048313;28;19966;-66
2023/06/18 10:27:09;;;;;;;;;;;;;;;-144.99;60.82;52060.84;5054191;28;20347;-72
2023/06/18 10:29:35;;;;;;;;;;;;;;;-144.99;60.45;52060.84;5051300;28;19951;-71
2023/06/18 10:32:02;;;;;;;;;;;;;;;-144.99;60.30;52060.84;5067245;28;19935;-72
2023/06/18 10:34:29;;;;;;;;;;;;;;;-144.99;61.13;52007.84;5062806;28;20475;-72
2023/06/18 10:36:57;;;;;;;;;;;;;;;-144.99;61.12;52016.00;5071435;28;19963;-72
2023/06/18 10:39:25;;;;;;;;;;;;;;;-144.99;61.08;52007.84;5051326;28;20026;-72
2023/06/18 10:41:52;;;;;;;;;;;;;;;-144.99;60.81;52028.22;5058821;28;19967;-70
2023/06/18 10:44:32;;;;;;;;;;;;;;;-144.99;59.83;52007.84;5049666;28;20323;-73
2023/06/18 10:47:14;;;;;;;;;;;;;;;-144.99;59.44;51999.69;5068591;28;19935;-75
2023/06/18 10:49:41;;;;;;;;;;;;;;;-144.99;59.98;51999.69;4703339;28;10000397;-70
2023/06/18 10:52:24;;;;;;;;;;;;;;;-144.99;60.43;51991.56;5057346;28;20179;-72
2023/06/18 10:54:54;;;;;;;;;;;;;;;-144.99;59.53;51958.94;5054790;28;19953;-74
2023/06/18 10:57:25;;;;;;;;;;;;;;;-144.99;59.47;51954.88;5062314;28;20492;-71
2023/06/18 10:59:52;;;;;;;;;;;;;;;-144.99;57.67;51975.25;5061187;28;19961;-71
2023/06/18 11:02:31;;;;;;;;;;;;;;;-144.99;58.50;51963.03;5074894;28;19939;-71
2023/06/18 11:04:58;;;;;;;;;;;;;;;-144.99;58.30;52009.91;5059700;28;19972;-71
2023/06/18 11:07:27;;;;;;;;;;;;;;;-144.99;58.38;51995.63;5073290;28;20341;-74
2023/06/18 11:09:57;;;;;;;;;;;;;;;-144.99;58.44;51979.31;5057074;28;20521;-74
2023/06/18 11:12:25;;;;;;;;;;;;;;;-144.99;59.49;51995.63;5053828;28;20043;-73
2023/06/18 11:15:10;;;;;;;;;;;;;;;-144.99;59.17;51987.47;5060891;28;19951;-73
2023/06/18 11:17:38;;;;;;;;;;;;;;;-144.99;59.07;51954.88;5060451;28;19962;-74
2023/06/18 11:20:06;;;;;;;;;;;;;;;-144.99;58.54;51967.09;5049489;28;20326;-73
2023/06/18 11:22:33;;;;;;;;;;;;;;;-144.99;57.90;51981.38;5062097;28;19951;-71
2023/06/18 11:25:01;;;;;;;;;;;;;;;-144.99;57.28;51971.16;5061339;28;19941;-72
2023/06/18 11:27:30;;;;;;;;;;;;;;;-144.99;57.06;51934.50;5061314;28;19945;-71
2023/06/18 11:29:57;;;;;;;;;;;;;;;-144.99;56.47;51948.75;5057663;28;20064;-72
2023/06/18 11:32:24;;;;;;;;;;;;;;;-144.99;57.03;51946.72;5053735;28;20042;-72
2023/06/18 11:34:51;;;;;;;;;;;;;;;-144.99;56.81;51960.97;5059052;28;20027;-73
2023/06/18 11:37:17;;;;;;;;;;;;;;;-144.99;55.60;51975.25;5055637;28;19957;-72
2023/06/18 11:39:44;;;;;;;;;;;;;;;-144.99;55.73;51954.88;5060234;28;19957;-74
2023/06/18 11:42:18;;;;;;;;;;;;;;;-144.99;55.69;51942.63;5061427;28;19948;-72
2023/06/18 11:44:51;;;;;;;;;;;;;;;-144.99;55.48;51942.63;5055385;28;20373;-73
2023/06/18 11:47:18;;;;;;;;;;;;;;;-144.99;55.33;51922.25;5061695;28;20015;-73
2023/06/18 11:49:45;;;;;;;;;;;;;;;-144.99;55.33;51934.50;5055324;28;20074;-72
2023/06/18 11:52:12;;;;;;;;;;;;;;;-144.99;54.67;51946.72;5059493;28;19940;-73
2023/06/18 11:54:40;;;;;;;;;;;;;;;-144.99;55.15;51928.38;5061329;28;19939;-74
2023/06/18 11:57:07;;;;;;;;;;;;;;;-144.99;56.22;51934.50;5065307;28;21716;-68
2023/06/18 11:59:36;;;;;;;;;;;;;;;-144.99;55.10;51926.34;5051680;28;19976;-65
2023/06/18 12:02:12;;;;;;;;;;;;;;;-144.99;54.21;51910.03;5062126;28;19974;-66
2023/06/18 12:04:38;;;;;;;;;;;;;;;-144.99;53.85;51926.34;5064096;28;19950;-69
2023/06/18 12:07:05;;;;;;;;;;;;;;;-144.99;54.25;51942.63;5061391;28;19940;-71
2023/06/18 12:09:33;;;;;;;;;;;;;;;-144.99;54.13;51938.56;5061221;28;19928;-70
2023/06/18 12:12:07;;;;;;;;;;;;;;;-144.99;54.02;51928.38;5061399;28;20065;-68
2023/06/18 12:14:38;;;;;;;;;;;;;;;-144.99;54.18;51934.50;5057792;28;20439;-68
2023/06/18 12:17:08;;;;;;;;;;;;;;;-144.99;54.34;51952.81;5058259;28;20385;-70
2023/06/18 12:19:36;;;;;;;;;;;;;;;-144.99;54.22;51942.63;5064513;28;20467;-70
2023/06/18 12:22:02;;;;;;;;;;;;;;;-144.99;54.09;51905.97;5061980;28;19936;-70
2023/06/18 12:24:29;;;;;;;;;;;;;;;-144.99;54.37;51930.41;5058066;28;19939;-70
2023/06/18 12:26:56;;;;;;;;;;;;;;;-144.99;54.23;51865.19;5064343;28;20298;-69